sensor_id;sensor_type;location;lat;lon;timestamp;pressure;altitude;pressure_sealevel;temperature;humidity
8051;BME280;4068;42.158;24.732;2024-01-11T00:00:29;100897.72;;;-3.76;100.00
8051;BME280;4068;42.158;24.732;2024-01-11T00:02:54;100897.72;;;-3.77;100.00
8051;BME280;4068;42.158;24.732;2024-01-11T00:05:20;100873.50;;;-3.75;100.00
8051;BME280;4068;42.158;24.732;2024-01-11T00:07:46;100888.19;;;-3.71;100.00
8051;BME280;4068;42.158;24.732;2024-01-11T00:10:12;100884.72;;;-3.82;100.00
8051;BME280;4068;42.158;24.732;2024-01-11T00:12:37;100892.50;;;-3.82;100.00
8051;BME280;4068;42.158;24.732;2024-01-11T00:15:03;100890.78;;;-3.80;100.00
8051;BME280;4068;42.158;24.732;2024-01-11T00:17:28;100893.38;;;-3.72;100.00
8051;BME280;4068;42.158;24.732;2024-01-11T00:19:54;100894.25;;;-3.70;100.00
8051;BME280;4068;42.158;24.732;2024-01-11T00:22:19;100865.72;;;-3.79;100.00
8051;BME280;4068;42.158;24.732;2024-01-11T00:24:45;100882.13;;;-3.65;100.00
8051;BME280;4068;42.158;24.732;2024-01-11T00:27:10;100858.81;;;-3.68;100.00
8051;BME280;4068;42.158;24.732;2024-01-11T00:29:36;100876.09;;;-3.59;100.00
8051;BME280;4068;42.158;24.732;2024-01-11T00:32:02;100874.38;;;-3.60;100.00
8051;BME280;4068;42.158;24.732;2024-01-11T00:34:27;100863.97;;;-3.65;100.00
8051;BME280;4068;42.158;24.732;2024-01-11T00:36:53;100860.53;;;-3.70;100.00
8051;BME280;4068;42.158;24.732;2024-01-11T00:39:18;100840.69;;;-3.93;100.00
8051;BME280;4068;42.158;24.732;2024-01-11T00:41:43;100861.41;;;-3.76;100.00
8051;BME280;4068;42.158;24.732;2024-01-11T00:44:09;100861.41;;;-3.79;100.00
8051;BME280;4068;42.158;24.732;2024-01-11T00:46:35;100851.03;;;-3.81;100.00
8051;BME280;4068;42.158;24.732;2024-01-11T00:49:00;100844.13;;;-3.85;100.00
8051;BME280;4068;42.158;24.732;2024-01-11T00:51:26;100829.44;;;-3.90;100.00
8051;BME280;4068;42.158;24.732;2024-01-11T00:53:51;100790.59;;;-4.10;100.00
8051;BME280;4068;42.158;24.732;2024-01-11T00:56:18;100838.94;;;-3.95;100.00
8051;BME280;4068;42.158;24.732;2024-01-11T00:58:44;100827.69;;;-3.99;100.00
8051;BME280;4068;42.158;24.732;2024-01-11T01:01:09;100826.84;;;-4.03;100.00
8051;BME280;4068;42.158;24.732;2024-01-11T01:03:35;100823.41;;;-4.16;100.00
8051;BME280;4068;42.158;24.732;2024-01-11T01:06:01;100823.41;;;-4.14;100.00
8051;BME280;4068;42.158;24.732;2024-01-11T01:08:27;100819.06;;;-4.13;100.00
8051;BME280;4068;42.158;24.732;2024-01-11T01:10:52;100827.72;;;-4.10;100.00
8051;BME280;4068;42.158;24.732;2024-01-11T01:13:18;100825.13;;;-4.10;100.00
8051;BME280;4068;42.158;24.732;2024-01-11T01:15:43;100816.50;;;-4.10;100.00
8051;BME280;4068;42.158;24.732;2024-01-11T01:18:09;100817.34;;;-4.10;100.00
8051;BME280;4068;42.158;24.732;2024-01-11T01:20:34;100788.84;;;-4.22;100.00
8051;BME280;4068;42.158;24.732;2024-01-11T01:23:00;100804.41;;;-4.10;100.00
8051;BME280;4068;42.158;24.732;2024-01-11T01:25:25;100807.84;;;-4.14;100.00
8051;BME280;4068;42.158;24.732;2024-01-11T01:27:51;100792.28;;;-4.29;100.00
8051;BME280;4068;42.158;24.732;2024-01-11T01:30:16;100799.19;;;-4.22;100.00
8051;BME280;4068;42.158;24.732;2024-01-11T01:32:42;100797.50;;;-4.20;100.00
8051;BME280;4068;42.158;24.732;2024-01-11T01:35:07;100791.44;;;-4.11;100.00
8051;BME280;4068;42.158;24.732;2024-01-11T01:37:33;100794.88;;;-4.00;100.00
8051;BME280;4068;42.158;24.732;2024-01-11T01:39:59;100792.28;;;-4.08;100.00
8051;BME280;4068;42.158;24.732;2024-01-11T01:42:24;100794.03;;;-4.22;100.00
8051;BME280;4068;42.158;24.732;2024-01-11T01:44:50;100787.97;;;-4.18;100.00
8051;BME280;4068;42.158;24.732;2024-01-11T01:47:17;100776.75;;;-4.22;100.00
8051;BME280;4068;42.158;24.732;2024-01-11T01:49:43;100755.16;;;-4.36;100.00
8051;BME280;4068;42.158;24.732;2024-01-11T01:52:10;100775.91;;;-4.33;100.00
8051;BME280;4068;42.158;24.732;2024-01-11T01:54:39;100784.53;;;-4.37;100.00
8051;BME280;4068;42.158;24.732;2024-01-11T01:57:07;100778.47;;;-4.39;100.00
8051;BME280;4068;42.158;24.732;2024-01-11T01:59:34;100772.44;;;-4.43;100.00
8051;BME280;4068;42.158;24.732;2024-01-11T02:02:00;100758.59;;;-4.45;100.00
8051;BME280;4068;42.158;24.732;2024-01-11T02:04:26;100731.84;;;-4.59;100.00
8051;BME280;4068;42.158;24.732;2024-01-11T02:06:53;100767.25;;;-4.34;100.00
8051;BME280;4068;42.158;24.732;2024-01-11T02:09:20;100768.09;;;-4.38;100.00
8051;BME280;4068;42.158;24.732;2024-01-11T02:11:46;100758.63;;;-4.40;100.00
8051;BME280;4068;42.158;24.732;2024-01-11T02:14:11;100760.34;;;-4.31;100.00
8051;BME280;4068;42.158;24.732;2024-01-11T02:16:37;100739.63;;;-4.42;100.00
8051;BME280;4068;42.158;24.732;2024-01-11T02:19:04;100750.84;;;-4.36;100.00
8051;BME280;4068;42.158;24.732;2024-01-11T02:21:32;100758.63;;;-4.40;100.00
8051;BME280;4068;42.158;24.732;2024-01-11T02:24:05;100740.47;;;-4.51;100.00
8051;BME280;4068;42.158;24.732;2024-01-11T02:26:31;100750.00;;;-4.53;100.00
8051;BME280;4068;42.158;24.732;2024-01-11T02:28:57;100753.44;;;-4.59;100.00
8051;BME280;4068;42.158;24.732;2024-01-11T02:31:23;100748.22;;;-4.60;100.00
8051;BME280;4068;42.158;24.732;2024-01-11T02:33:50;100707.66;;;-4.75;100.00
8051;BME280;4068;42.158;24.732;2024-01-11T02:36:16;100747.38;;;-4.58;100.00
8051;BME280;4068;42.158;24.732;2024-01-11T02:38:42;100747.38;;;-4.61;100.00
8051;BME280;4068;42.158;24.732;2024-01-11T02:41:08;100747.38;;;-4.59;100.00
8051;BME280;4068;42.158;24.732;2024-01-11T02:43:34;100733.59;;;-4.64;100.00
8051;BME280;4068;42.158;24.732;2024-01-11T02:46:02;100752.56;;;-4.61;100.00
8051;BME280;4068;42.158;24.732;2024-01-11T02:48:28;100721.47;;;-4.82;100.00
8051;BME280;4068;42.158;24.732;2024-01-11T02:50:55;100743.91;;;-4.71;100.00
8051;BME280;4068;42.158;24.732;2024-01-11T02:53:20;100746.50;;;-4.72;100.00
8051;BME280;4068;42.158;24.732;2024-01-11T02:55:46;100747.38;;;-4.69;100.00
8051;BME280;4068;42.158;24.732;2024-01-11T02:58:11;100751.69;;;-4.68;100.00
8051;BME280;4068;42.158;24.732;2024-01-11T03:00:37;100745.66;;;-4.66;100.00
8051;BME280;4068;42.158;24.732;2024-01-11T03:03:03;100742.19;;;-4.67;100.00
8051;BME280;4068;42.158;24.732;2024-01-11T03:05:28;100744.78;;;-4.72;100.00
8051;BME280;4068;42.158;24.732;2024-01-11T03:07:54;100738.72;;;-4.74;100.00
8051;BME280;4068;42.158;24.732;2024-01-11T03:10:19;100752.53;;;-4.82;100.00
8051;BME280;4068;42.158;24.732;2024-01-11T03:12:44;100738.72;;;-4.80;100.00
8051;BME280;4068;42.158;24.732;2024-01-11T03:15:10;100723.16;;;-4.86;100.00
8051;BME280;4068;42.158;24.732;2024-01-11T03:17:35;100724.91;;;-4.79;100.00
8051;BME280;4068;42.158;24.732;2024-01-11T03:20:01;100730.97;;;-4.81;100.00
8051;BME280;4068;42.158;24.732;2024-01-11T03:22:28;100731.81;;;-4.90;100.00
8051;BME280;4068;42.158;24.732;2024-01-11T03:24:54;100733.53;;;-4.91;100.00
8051;BME280;4068;42.158;24.732;2024-01-11T03:27:19;100718.00;;;-5.01;100.00
8051;BME280;4068;42.158;24.732;2024-01-11T03:29:45;100731.78;;;-4.93;100.00
8051;BME280;4068;42.158;24.732;2024-01-11T03:32:10;100725.75;;;-4.94;100.00
8051;BME280;4068;42.158;24.732;2024-01-11T03:34:39;100724.91;;;-4.91;100.00
8051;BME280;4068;42.158;24.732;2024-01-11T03:37:04;100721.44;;;-4.96;100.00
8051;BME280;4068;42.158;24.732;2024-01-11T03:39:30;100723.16;;;-4.92;100.00
8051;BME280;4068;42.158;24.732;2024-01-11T03:41:55;100725.75;;;-4.91;100.00
8051;BME280;4068;42.158;24.732;2024-01-11T03:44:22;100705.91;;;-4.93;100.00
8051;BME280;4068;42.158;24.732;2024-01-11T03:46:47;100715.44;;;-4.83;100.00
8051;BME280;4068;42.158;24.732;2024-01-11T03:49:13;100711.97;;;-4.94;100.00
8051;BME280;4068;42.158;24.732;2024-01-11T03:51:39;100718.88;;;-4.84;100.00
8051;BME280;4068;42.158;24.732;2024-01-11T03:54:05;100710.25;;;-4.80;100.00
8051;BME280;4068;42.158;24.732;2024-01-11T03:56:30;100705.06;;;-4.86;100.00
8051;BME280;4068;42.158;24.732;2024-01-11T03:58:56;100710.25;;;-4.78;100.00
8051;BME280;4068;42.158;24.732;2024-01-11T04:01:21;100704.19;;;-4.83;100.00
8051;BME280;4068;42.158;24.732;2024-01-11T04:03:47;100704.22;;;-4.90;100.00
8051;BME280;4068;42.158;24.732;2024-01-11T04:06:22;100698.16;;;-4.96;100.00
8051;BME280;4068;42.158;24.732;2024-01-11T04:08:49;100695.56;;;-4.99;100.00
8051;BME280;4068;42.158;24.732;2024-01-11T04:11:15;100699.00;;;-5.02;100.00
8051;BME280;4068;42.158;24.732;2024-01-11T04:13:40;100698.16;;;-5.03;100.00
8051;BME280;4068;42.158;24.732;2024-01-11T04:16:06;100696.44;;;-4.91;100.00
8051;BME280;4068;42.158;24.732;2024-01-11T04:18:32;100679.19;;;-4.34;100.00
8051;BME280;4068;42.158;24.732;2024-01-11T04:20:58;100655.88;;;-4.41;100.00
8051;BME280;4068;42.158;24.732;2024-01-11T04:23:24;100669.66;;;-4.14;100.00
8051;BME280;4068;42.158;24.732;2024-01-11T04:25:50;100672.28;;;-4.33;100.00
8051;BME280;4068;42.158;24.732;2024-01-11T04:28:16;100680.88;;;-4.17;100.00
8051;BME280;4068;42.158;24.732;2024-01-11T04:30:42;100685.19;;;-4.07;100.00
8051;BME280;4068;42.158;24.732;2024-01-11T04:33:08;100676.59;;;-4.23;100.00
8051;BME280;4068;42.158;24.732;2024-01-11T04:35:33;100681.75;;;-4.34;100.00
8051;BME280;4068;42.158;24.732;2024-01-11T04:37:59;100689.56;;;-4.41;100.00
8051;BME280;4068;42.158;24.732;2024-01-11T04:40:24;100690.41;;;-4.39;100.00
8051;BME280;4068;42.158;24.732;2024-01-11T04:42:50;100694.75;;;-4.46;100.00
8051;BME280;4068;42.158;24.732;2024-01-11T04:45:15;100653.31;;;-4.69;100.00
8051;BME280;4068;42.158;24.732;2024-01-11T04:47:40;100680.91;;;-4.48;100.00
8051;BME280;4068;42.158;24.732;2024-01-11T04:50:07;100680.94;;;-4.53;100.00
8051;BME280;4068;42.158;24.732;2024-01-11T04:52:32;100688.69;;;-4.54;100.00
8051;BME280;4068;42.158;24.732;2024-01-11T04:54:58;100680.03;;;-4.55;100.00
8051;BME280;4068;42.158;24.732;2024-01-11T04:57:23;100680.06;;;-4.59;100.00
8051;BME280;4068;42.158;24.732;2024-01-11T04:59:49;100667.97;;;-4.62;100.00
8051;BME280;4068;42.158;24.732;2024-01-11T05:02:14;100672.28;;;-4.64;100.00
8051;BME280;4068;42.158;24.732;2024-01-11T05:04:40;100654.16;;;-4.81;100.00
8051;BME280;4068;42.158;24.732;2024-01-11T05:07:05;100672.31;;;-4.69;100.00
8051;BME280;4068;42.158;24.732;2024-01-11T05:09:31;100630.88;;;-5.04;100.00
8051;BME280;4068;42.158;24.732;2024-01-11T05:11:57;100674.00;;;-4.89;100.00
8051;BME280;4068;42.158;24.732;2024-01-11T05:14:22;100675.72;;;-4.87;100.00
8051;BME280;4068;42.158;24.732;2024-01-11T05:16:48;100676.59;;;-4.75;100.00
8051;BME280;4068;42.158;24.732;2024-01-11T05:19:13;100670.56;;;-4.76;100.00
8051;BME280;4068;42.158;24.732;2024-01-11T05:21:39;100672.28;;;-4.82;100.00
8051;BME280;4068;42.158;24.732;2024-01-11T05:24:04;100665.41;;;-4.77;100.00
8051;BME280;4068;42.158;24.732;2024-01-11T05:26:31;100673.16;;;-4.76;100.00
8051;BME280;4068;42.158;24.732;2024-01-11T05:28:57;100642.09;;;-4.93;100.00
8051;BME280;4068;42.158;24.732;2024-01-11T05:31:22;100674.88;;;-4.73;100.00
8051;BME280;4068;42.158;24.732;2024-01-11T05:33:48;100651.59;;;-4.84;100.00
8051;BME280;4068;42.158;24.732;2024-01-11T05:36:13;100656.75;;;-4.73;100.00
8051;BME280;4068;42.158;24.732;2024-01-11T05:38:39;100640.34;;;-4.88;100.00
8051;BME280;4068;42.158;24.732;2024-01-11T05:41:05;100652.44;;;-4.71;100.00
8051;BME280;4068;42.158;24.732;2024-01-11T05:43:31;100655.03;;;-4.68;100.00
8051;BME280;4068;42.158;24.732;2024-01-11T05:45:56;100633.47;;;-4.81;100.00
8051;BME280;4068;42.158;24.732;2024-01-11T05:48:22;100645.53;;;-4.74;100.00
8051;BME280;4068;42.158;24.732;2024-01-11T05:50:47;100631.75;;;-4.74;100.00
8051;BME280;4068;42.158;24.732;2024-01-11T05:53:13;100642.09;;;-4.63;100.00
8051;BME280;4068;42.158;24.732;2024-01-11T05:55:39;100639.50;;;-4.63;100.00
8051;BME280;4068;42.158;24.732;2024-01-11T05:58:05;100642.97;;;-4.64;100.00
8051;BME280;4068;42.158;24.732;2024-01-11T06:00:31;100645.53;;;-4.68;100.00
8051;BME280;4068;42.158;24.732;2024-01-11T06:02:56;100642.09;;;-4.70;100.00
8051;BME280;4068;42.158;24.732;2024-01-11T06:05:22;100644.66;;;-4.65;100.00
8051;BME280;4068;42.158;24.732;2024-01-11T06:07:47;100596.38;;;-4.89;100.00
8051;BME280;4068;42.158;24.732;2024-01-11T06:10:14;100649.84;;;-4.46;100.00
8051;BME280;4068;42.158;24.732;2024-01-11T06:12:40;100645.50;;;-4.38;100.00
8051;BME280;4068;42.158;24.732;2024-01-11T06:15:06;100627.41;;;-4.41;100.00
8051;BME280;4068;42.158;24.732;2024-01-11T06:17:32;100637.72;;;-4.26;100.00
8051;BME280;4068;42.158;24.732;2024-01-11T06:19:58;100642.88;;;-4.18;100.00
8051;BME280;4068;42.158;24.732;2024-01-11T06:22:23;100632.53;;;-4.10;100.00
8051;BME280;4068;42.158;24.732;2024-01-11T06:24:49;100627.31;;;-4.04;100.00
8051;BME280;4068;42.158;24.732;2024-01-11T06:27:14;100637.59;;;-3.81;100.00
8051;BME280;4068;42.158;24.732;2024-01-11T06:29:39;100641.84;;;-3.71;100.00
8051;BME280;4068;42.158;24.732;2024-01-11T06:32:05;100635.84;;;-3.76;100.00
8051;BME280;4068;42.158;24.732;2024-01-11T06:34:31;100634.09;;;-3.74;100.00
8051;BME280;4068;42.158;24.732;2024-01-11T06:36:56;100636.72;;;-3.80;100.00
8051;BME280;4068;42.158;24.732;2024-01-11T06:39:22;100633.22;;;-3.73;100.00
8051;BME280;4068;42.158;24.732;2024-01-11T06:41:47;100587.50;;;-3.86;100.00
8051;BME280;4068;42.158;24.732;2024-01-11T06:44:13;100629.75;;;-3.69;100.00
8051;BME280;4068;42.158;24.732;2024-01-11T06:46:39;100632.34;;;-3.69;100.00
8051;BME280;4068;42.158;24.732;2024-01-11T06:49:07;100628.03;;;-3.68;100.00
8051;BME280;4068;42.158;24.732;2024-01-11T06:51:32;100621.00;;;-3.51;100.00
8051;BME280;4068;42.158;24.732;2024-01-11T06:54:00;100621.81;;;-3.35;100.00
8051;BME280;4068;42.158;24.732;2024-01-11T06:56:27;100627.94;;;-3.53;100.00
8051;BME280;4068;42.158;24.732;2024-01-11T06:58:52;100625.38;;;-3.57;100.00
8051;BME280;4068;42.158;24.732;2024-01-11T07:01:18;100626.28;;;-3.61;100.00
8051;BME280;4068;42.158;24.732;2024-01-11T07:03:44;100627.91;;;-3.45;100.00
8051;BME280;4068;42.158;24.732;2024-01-11T07:06:09;100603.66;;;-3.39;100.00
8051;BME280;4068;42.158;24.732;2024-01-11T07:08:35;100631.31;;;-3.37;100.00
8051;BME280;4068;42.158;24.732;2024-01-11T07:11:01;100635.56;;;-3.26;100.00
8051;BME280;4068;42.158;24.732;2024-01-11T07:13:30;100627.88;;;-3.39;100.00
8051;BME280;4068;42.158;24.732;2024-01-11T07:15:59;100632.94;;;-3.19;100.00
8051;BME280;4068;42.158;24.732;2024-01-11T07:18:25;100633.78;;;-3.18;100.00
8051;BME280;4068;42.158;24.732;2024-01-11T07:20:52;100632.91;;;-3.13;100.00
8051;BME280;4068;42.158;24.732;2024-01-11T07:23:21;100607.03;;;-3.23;100.00
8051;BME280;4068;42.158;24.732;2024-01-11T07:25:47;100629.25;;;-2.88;100.00
8051;BME280;4068;42.158;24.732;2024-01-11T07:28:12;100625.72;;;-2.80;100.00
8051;BME280;4068;42.158;24.732;2024-01-11T07:30:38;100588.59;;;-2.88;100.00
8051;BME280;4068;42.158;24.732;2024-01-11T07:33:05;100621.31;;;-2.68;100.00
8051;BME280;4068;42.158;24.732;2024-01-11T07:35:30;100573.84;;;-2.84;100.00
8051;BME280;4068;42.158;24.732;2024-01-11T07:37:56;100615.06;;;-2.49;100.00
8051;BME280;4068;42.158;24.732;2024-01-11T07:40:22;100616.69;;;-2.37;100.00
8051;BME280;4068;42.158;24.732;2024-01-11T07:42:48;100590.66;;;-2.35;100.00
8051;BME280;4068;42.158;24.732;2024-01-11T07:45:15;100581.81;;;-2.17;100.00
8051;BME280;4068;42.158;24.732;2024-01-11T07:47:40;100610.28;;;-2.03;100.00
8051;BME280;4068;42.158;24.732;2024-01-11T07:50:06;100602.28;;;-1.86;100.00
8051;BME280;4068;42.158;24.732;2024-01-11T07:52:35;100607.31;;;-1.76;100.00
8051;BME280;4068;42.158;24.732;2024-01-11T07:55:02;100602.06;;;-1.73;100.00
8051;BME280;4068;42.158;24.732;2024-01-11T07:57:32;100607.88;;;-1.52;100.00
8051;BME280;4068;42.158;24.732;2024-01-11T07:59:58;100606.00;;;-1.41;100.00
8051;BME280;4068;42.158;24.732;2024-01-11T08:02:25;100588.56;;;-1.34;100.00
8051;BME280;4068;42.158;24.732;2024-01-11T08:04:50;100565.97;;;-1.33;100.00
8051;BME280;4068;42.158;24.732;2024-01-11T08:07:16;100602.84;;;-1.03;100.00
8051;BME280;4068;42.158;24.732;2024-01-11T08:09:41;100601.00;;;-0.97;100.00
8051;BME280;4068;42.158;24.732;2024-01-11T08:12:19;100599.88;;;-0.82;100.00
8051;BME280;4068;42.158;24.732;2024-01-11T08:14:45;100603.28;;;-0.77;100.00
8051;BME280;4068;42.158;24.732;2024-01-11T08:17:11;100598.69;;;-0.62;100.00
8051;BME280;4068;42.158;24.732;2024-01-11T08:19:39;100576.22;;;-0.68;100.00
8051;BME280;4068;42.158;24.732;2024-01-11T08:22:05;100589.81;;;-0.52;100.00
8051;BME280;4068;42.158;24.732;2024-01-11T08:24:31;100594.94;;;-0.47;100.00
8051;BME280;4068;42.158;24.732;2024-01-11T08:26:56;100585.16;;;-0.35;100.00
8051;BME280;4068;42.158;24.732;2024-01-11T08:29:23;100595.31;;;-0.21;100.00
8051;BME280;4068;42.158;24.732;2024-01-11T08:31:48;100590.75;;;-0.09;100.00
8051;BME280;4068;42.158;24.732;2024-01-11T08:34:14;100592.28;;;0.01;100.00
8051;BME280;4068;42.158;24.732;2024-01-11T08:36:40;100577.31;;;0.11;100.00
8051;BME280;4068;42.158;24.732;2024-01-11T08:39:05;100594.41;;;0.24;100.00
8051;BME280;4068;42.158;24.732;2024-01-11T08:41:31;100565.81;;;0.20;100.00
8051;BME280;4068;42.158;24.732;2024-01-11T08:43:58;100581.22;;;0.32;100.00
8051;BME280;4068;42.158;24.732;2024-01-11T08:46:27;100538.81;;;0.22;100.00
8051;BME280;4068;42.158;24.732;2024-01-11T08:48:53;100576.19;;;0.63;100.00
8051;BME280;4068;42.158;24.732;2024-01-11T08:51:21;100566.19;;;0.81;100.00
8051;BME280;4068;42.158;24.732;2024-01-11T08:53:46;100554.97;;;0.77;100.00
8051;BME280;4068;42.158;24.732;2024-01-11T08:56:12;100551.53;;;0.75;100.00
8051;BME280;4068;42.158;24.732;2024-01-11T08:58:39;100549.53;;;0.85;100.00
8051;BME280;4068;42.158;24.732;2024-01-11T09:01:05;100510.56;;;0.77;100.00
8051;BME280;4068;42.158;24.732;2024-01-11T09:03:36;100524.03;;;0.96;100.00
8051;BME280;4068;42.158;24.732;2024-01-11T09:06:04;100532.03;;;0.90;100.00
8051;BME280;4068;42.158;24.732;2024-01-11T09:08:30;100529.53;;;1.20;100.00
8051;BME280;4068;42.158;24.732;2024-01-11T09:10:56;100493.00;;;1.18;100.00
8051;BME280;4068;42.158;24.732;2024-01-11T09:13:23;100525.22;;;1.50;100.00
8051;BME280;4068;42.158;24.732;2024-01-11T09:15:51;100499.47;;;1.36;100.00
8051;BME280;4068;42.158;24.732;2024-01-11T09:18:17;100513.38;;;1.70;100.00
8051;BME280;4068;42.158;24.732;2024-01-11T09:20:43;100513.09;;;1.79;100.00
8051;BME280;4068;42.158;24.732;2024-01-11T09:23:09;100507.56;;;1.90;100.00
8051;BME280;4068;42.158;24.732;2024-01-11T09:25:34;100504.59;;;2.02;100.00
8051;BME280;4068;42.158;24.732;2024-01-11T09:28:00;100497.22;;;2.15;100.00
8051;BME280;4068;42.158;24.732;2024-01-11T09:30:25;100475.69;;;1.77;100.00
8051;BME280;4068;42.158;24.732;2024-01-11T09:32:51;100490.09;;;1.90;100.00
8051;BME280;4068;42.158;24.732;2024-01-11T09:35:17;100483.22;;;1.86;100.00
8051;BME280;4068;42.158;24.732;2024-01-11T09:37:43;100462.59;;;2.07;100.00
8051;BME280;4068;42.158;24.732;2024-01-11T09:40:11;100464.44;;;2.32;100.00
8051;BME280;4068;42.158;24.732;2024-01-11T09:42:37;100462.53;;;2.37;100.00
8051;BME280;4068;42.158;24.732;2024-01-11T09:45:07;100457.94;;;2.44;100.00
8051;BME280;4068;42.158;24.732;2024-01-11T09:47:35;100448.94;;;2.52;100.00
8051;BME280;4068;42.158;24.732;2024-01-11T09:50:02;100444.28;;;2.61;100.00
8051;BME280;4068;42.158;24.732;2024-01-11T09:52:28;100438.00;;;2.66;100.00
8051;BME280;4068;42.158;24.732;2024-01-11T09:54:57;100415.19;;;2.43;100.00
8051;BME280;4068;42.158;24.732;2024-01-11T09:57:24;100425.06;;;2.62;100.00
8051;BME280;4068;42.158;24.732;2024-01-11T09:59:54;100425.56;;;2.73;100.00
8051;BME280;4068;42.158;24.732;2024-01-11T10:02:22;100417.34;;;2.84;99.73
8051;BME280;4068;42.158;24.732;2024-01-11T10:04:48;100371.56;;;2.69;99.24
8051;BME280;4068;42.158;24.732;2024-01-11T10:07:15;100402.78;;;3.00;99.86
8051;BME280;4068;42.158;24.732;2024-01-11T10:09:44;100404.31;;;3.06;98.95
8051;BME280;4068;42.158;24.732;2024-01-11T10:12:10;100399.78;;;3.11;98.51
8051;BME280;4068;42.158;24.732;2024-01-11T10:14:35;100406.03;;;3.07;97.31
8051;BME280;4068;42.158;24.732;2024-01-11T10:17:01;100396.09;;;2.91;97.20
8051;BME280;4068;42.158;24.732;2024-01-11T10:19:26;100389.56;;;3.03;97.30
8051;BME280;4068;42.158;24.732;2024-01-11T10:21:52;100382.44;;;3.07;97.60
8051;BME280;4068;42.158;24.732;2024-01-11T10:24:19;100337.75;;;2.86;97.83
8051;BME280;4068;42.158;24.732;2024-01-11T10:26:45;100373.63;;;3.33;97.61
8051;BME280;4068;42.158;24.732;2024-01-11T10:29:11;100375.44;;;3.55;96.27
8051;BME280;4068;42.158;24.732;2024-01-11T10:31:38;100335.63;;;3.45;95.75
8051;BME280;4068;42.158;24.732;2024-01-11T10:34:04;100353.53;;;3.56;95.45
8051;BME280;4068;42.158;24.732;2024-01-11T10:36:31;100359.47;;;3.61;95.71
8051;BME280;4068;42.158;24.732;2024-01-11T10:39:01;100320.16;;;3.37;95.37
8051;BME280;4068;42.158;24.732;2024-01-11T10:41:38;100338.47;;;3.83;95.21
8051;BME280;4068;42.158;24.732;2024-01-11T10:44:12;100340.94;;;3.88;94.27
8051;BME280;4068;42.158;24.732;2024-01-11T10:46:41;100336.97;;;4.00;94.20
8051;BME280;4068;42.158;24.732;2024-01-11T10:49:08;100332.13;;;4.11;93.77
8051;BME280;4068;42.158;24.732;2024-01-11T10:51:35;100331.66;;;4.22;92.89
8051;BME280;4068;42.158;24.732;2024-01-11T10:54:02;100315.13;;;3.99;93.02
8051;BME280;4068;42.158;24.732;2024-01-11T10:56:28;100316.44;;;4.09;93.63
8051;BME280;4068;42.158;24.732;2024-01-11T10:58:54;100308.28;;;3.73;93.11
8051;BME280;4068;42.158;24.732;2024-01-11T11:01:21;100308.59;;;3.87;94.05
8051;BME280;4068;42.158;24.732;2024-01-11T11:03:48;100308.81;;;4.03;92.15
8051;BME280;4068;42.158;24.732;2024-01-11T11:06:18;100296.22;;;4.11;92.03
8051;BME280;4068;42.158;24.732;2024-01-11T11:08:44;100300.28;;;4.19;91.15
8051;BME280;4068;42.158;24.732;2024-01-11T11:11:11;100283.09;;;4.11;90.58
8051;BME280;4068;42.158;24.732;2024-01-11T11:13:37;100290.00;;;4.35;90.57
8051;BME280;4068;42.158;24.732;2024-01-11T11:16:04;100280.44;;;4.34;90.50
8051;BME280;4068;42.158;24.732;2024-01-11T11:18:30;100258.13;;;4.23;90.39
8051;BME280;4068;42.158;24.732;2024-01-11T11:20:57;100288.09;;;4.38;88.99
8051;BME280;4068;42.158;24.732;2024-01-11T11:23:23;100278.44;;;4.39;89.45
8051;BME280;4068;42.158;24.732;2024-01-11T11:25:49;100274.63;;;4.46;89.35
8051;BME280;4068;42.158;24.732;2024-01-11T11:28:18;100269.50;;;4.63;88.79
8051;BME280;4068;42.158;24.732;2024-01-11T11:30:45;100263.06;;;4.71;88.52
8051;BME280;4068;42.158;24.732;2024-01-11T11:33:25;100256.47;;;4.81;88.27
8051;BME280;4068;42.158;24.732;2024-01-11T11:35:57;100253.75;;;4.43;86.65
8051;BME280;4068;42.158;24.732;2024-01-11T11:38:28;100249.22;;;4.46;87.89
8051;BME280;4068;42.158;24.732;2024-01-11T11:40:55;100226.75;;;4.60;86.51
8051;BME280;4068;42.158;24.732;2024-01-11T11:43:22;100199.19;;;4.49;86.09
8051;BME280;4068;42.158;24.732;2024-01-11T11:45:50;100205.13;;;4.53;86.12
8051;BME280;4068;42.158;24.732;2024-01-11T11:51:12;100204.59;;;4.65;87.37
8051;BME280;4068;42.158;24.732;2024-01-11T11:53:40;100207.50;;;4.78;86.73
8051;BME280;4068;42.158;24.732;2024-01-11T11:56:07;100200.47;;;4.98;84.77
8051;BME280;4068;42.158;24.732;2024-01-11T11:58:35;100193.09;;;4.87;83.72
8051;BME280;4068;42.158;24.732;2024-01-11T12:01:01;100182.22;;;4.76;84.39
8051;BME280;4068;42.158;24.732;2024-01-11T12:03:33;100180.31;;;4.60;84.08
8051;BME280;4068;42.158;24.732;2024-01-11T12:06:01;100172.38;;;4.62;84.49
8051;BME280;4068;42.158;24.732;2024-01-11T12:08:26;100164.13;;;4.70;84.77
8051;BME280;4068;42.158;24.732;2024-01-11T12:10:52;100160.56;;;4.90;84.64
8051;BME280;4068;42.158;24.732;2024-01-11T12:13:18;100134.44;;;4.68;84.32
8051;BME280;4068;42.158;24.732;2024-01-11T12:15:44;100147.69;;;5.03;84.64
8051;BME280;4068;42.158;24.732;2024-01-11T12:18:10;100145.97;;;5.01;83.79
8051;BME280;4068;42.158;24.732;2024-01-11T12:20:35;100150.47;;;4.99;83.96
8051;BME280;4068;42.158;24.732;2024-01-11T12:23:02;100142.28;;;5.06;82.89
8051;BME280;4068;42.158;24.732;2024-01-11T12:25:28;100139.72;;;5.04;81.67
8051;BME280;4068;42.158;24.732;2024-01-11T12:27:55;100135.94;;;5.10;81.47
8051;BME280;4068;42.158;24.732;2024-01-11T12:30:24;100115.81;;;5.09;82.02
8051;BME280;4068;42.158;24.732;2024-01-11T12:32:51;100127.78;;;5.33;80.85
8051;BME280;4068;42.158;24.732;2024-01-11T12:35:17;100126.09;;;5.50;79.61
8051;BME280;4068;42.158;24.732;2024-01-11T12:37:55;100125.47;;;5.27;78.68
8051;BME280;4068;42.158;24.732;2024-01-11T12:40:23;100119.75;;;5.36;79.25
8051;BME280;4068;42.158;24.732;2024-01-11T12:42:49;100117.09;;;5.19;77.66
8051;BME280;4068;42.158;24.732;2024-01-11T12:45:16;100116.31;;;5.17;78.42
8051;BME280;4068;42.158;24.732;2024-01-11T12:47:42;100113.31;;;5.25;76.70
8051;BME280;4068;42.158;24.732;2024-01-11T12:50:08;100112.69;;;5.19;76.91
8051;BME280;4068;42.158;24.732;2024-01-11T12:52:34;100110.63;;;5.26;76.61